createdAt,value
2019-05-02T00:01:13.306Z,99.90
2019-05-02T00:03:53.376Z,99.90
2019-05-02T00:06:31.008Z,99.90
2019-05-02T00:09:09.293Z,99.90
2019-05-02T00:11:58.220Z,99.90
2019-05-02T00:14:30.227Z,99.90
2019-05-02T00:17:10.673Z,99.90
2019-05-02T00:19:49.982Z,99.90
2019-05-02T00:22:29.012Z,99.90
2019-05-02T00:25:11.071Z,99.90
2019-05-02T00:27:50.438Z,99.90
2019-05-02T00:30:34.693Z,99.90
2019-05-02T00:33:10.475Z,99.90
2019-05-02T00:35:48.216Z,99.90
2019-05-02T00:38:23.822Z,99.90
2019-05-02T00:41:02.267Z,99.90
2019-05-02T00:43:36.238Z,99.90
2019-05-02T00:46:10.320Z,99.90
2019-05-02T00:48:53.992Z,99.90
2019-05-02T00:51:26.712Z,99.90
2019-05-02T00:54:01.208Z,99.90
2019-05-02T00:56:40.189Z,99.90
2019-05-02T00:59:11.950Z,99.90
2019-05-02T01:02:10.166Z,99.90
2019-05-02T01:04:46.437Z,99.90
2019-05-02T01:07:25.505Z,99.90
2019-05-02T01:09:57.316Z,99.90
2019-05-02T01:12:32.714Z,99.90
2019-05-02T01:15:08.291Z,99.90
2019-05-02T01:17:43.367Z,99.90
2019-05-02T01:20:22.131Z,99.90
2019-05-02T01:22:56.592Z,99.90
2019-05-02T01:25:42.522Z,99.90
2019-05-02T01:28:29.387Z,99.90
2019-05-02T01:31:13.076Z,99.90
2019-05-02T01:34:24.593Z,99.90
2019-05-02T01:37:27.975Z,99.90
2019-05-02T01:40:06.876Z,99.90
2019-05-02T01:42:49.131Z,99.90
2019-05-02T01:45:23.411Z,99.90
2019-05-02T01:47:57.765Z,99.90
2019-05-02T01:50:34.739Z,99.90
2019-05-02T01:53:08.945Z,99.90
2019-05-02T01:55:44.388Z,99.90
2019-05-02T01:58:20.846Z,99.90
2019-05-02T02:00:56.709Z,99.90
2019-05-02T02:03:31.294Z,99.90
2019-05-02T02:06:08.058Z,99.90
2019-05-02T02:08:41.639Z,99.90
2019-05-02T02:11:15.810Z,99.90
2019-05-02T02:13:49.922Z,99.90
2019-05-02T02:16:24.527Z,99.90
2019-05-02T02:19:05.370Z,99.90
2019-05-02T02:21:47.137Z,99.90
2019-05-02T02:24:26.845Z,99.90
2019-05-02T02:27:00.789Z,99.90
2019-05-02T02:29:38.963Z,99.90
2019-05-02T02:32:11.707Z,99.90
2019-05-02T02:34:46.442Z,99.90
2019-05-02T02:37:20.757Z,99.90
2019-05-02T02:39:56.463Z,99.90
2019-05-02T02:42:34.076Z,99.90
2019-05-02T02:45:18.798Z,99.90
2019-05-02T02:47:59.851Z,99.90
2019-05-02T02:50:30.428Z,99.90
2019-05-02T02:53:05.166Z,99.90
2019-05-02T02:55:39.281Z,99.90
2019-05-02T02:58:15.165Z,99.90
2019-05-02T03:00:50.250Z,99.90
2019-05-02T03:03:27.758Z,99.90
2019-05-02T03:06:05.887Z,99.90
2019-05-02T03:08:46.313Z,99.90
2019-05-02T03:11:22.802Z,99.90
2019-05-02T03:14:15.474Z,99.90
2019-05-02T03:16:49.537Z,99.90
2019-05-02T03:19:24.331Z,99.90
2019-05-02T03:22:04.062Z,99.90
2019-05-02T03:24:36.572Z,99.90
2019-05-02T03:27:10.666Z,99.90
2019-05-02T03:29:45.222Z,99.90
2019-05-02T03:32:31.755Z,99.90
2019-05-02T03:34:55.973Z,99.90
2019-05-02T03:37:30.645Z,99.90
2019-05-02T03:40:04.868Z,99.90
2019-05-02T03:42:44.543Z,99.90
2019-05-02T03:45:17.090Z,99.90
2019-05-02T03:47:52.063Z,99.90
2019-05-02T03:50:32.731Z,99.90
2019-05-02T03:53:03.175Z,99.90
2019-05-02T03:55:45.203Z,99.90
2019-05-02T03:58:24.005Z,99.90
2019-05-02T04:01:03.577Z,99.90
2019-05-02T04:03:43.774Z,99.90
2019-05-02T04:06:24.656Z,99.90
2019-05-02T04:09:03.190Z,99.90
2019-05-02T04:11:45.046Z,99.90
2019-05-02T04:14:36.901Z,99.90
2019-05-02T04:17:03.308Z,99.90
2019-05-02T04:19:38.108Z,99.90
2019-05-02T04:22:13.358Z,99.90
2019-05-02T04:24:54.401Z,99.90
2019-05-02T04:27:27.685Z,99.90
2019-05-02T04:30:10.159Z,99.90
2019-05-02T04:32:42.963Z,99.90
2019-05-02T04:35:16.631Z,99.90
2019-05-02T04:37:51.600Z,99.90
2019-05-02T04:40:53.166Z,99.90
2019-05-02T04:43:28.748Z,99.90
2019-05-02T04:46:10.679Z,99.90
2019-05-02T04:48:44.407Z,99.90
2019-05-02T04:51:17.513Z,99.90
2019-05-02T04:53:51.780Z,99.90
2019-05-02T04:56:28.371Z,99.90
2019-05-02T04:59:08.517Z,99.90
2019-05-02T05:01:46.505Z,99.90
2019-05-02T05:04:17.929Z,99.90
2019-05-02T05:07:00.143Z,99.90
2019-05-02T05:09:29.406Z,99.90
2019-05-02T05:12:07.039Z,99.90
2019-05-02T05:14:43.318Z,99.90
2019-05-02T05:17:17.937Z,99.90
2019-05-02T05:19:54.043Z,99.90
2019-05-02T05:22:28.366Z,99.90
2019-05-02T05:25:12.289Z,99.90
2019-05-02T05:27:52.626Z,99.90
2019-05-02T05:30:27.764Z,99.90
2019-05-02T05:33:01.743Z,99.90
2019-05-02T05:35:38.572Z,99.90
2019-05-02T05:38:13.480Z,99.90
2019-05-02T05:40:47.897Z,99.90
2019-05-02T05:43:21.536Z,99.90
2019-05-02T05:46:06.110Z,99.90
2019-05-02T05:48:32.104Z,99.90
2019-05-02T05:51:04.259Z,99.90
2019-05-02T05:53:37.606Z,99.90
2019-05-02T05:56:10.809Z,99.90
2019-05-02T05:58:51.369Z,99.90
2019-05-02T06:01:33.758Z,99.90
2019-05-02T06:04:04.403Z,99.90
2019-05-02T06:06:41.051Z,99.90
2019-05-02T06:09:14.896Z,99.90
2019-05-02T06:11:55.486Z,99.90
2019-05-02T06:14:26.518Z,99.90
2019-05-02T06:17:01.058Z,99.80
2019-05-02T06:19:36.799Z,99.90
2019-05-02T06:22:16.502Z,99.90
2019-05-02T06:24:52.101Z,99.60
2019-05-02T06:27:26.758Z,98.70
2019-05-02T06:30:02.645Z,98.60
2019-05-02T06:32:35.704Z,99.20
2019-05-02T06:35:08.949Z,98.80
2019-05-02T06:37:45.369Z,98.40
2019-05-02T06:40:23.168Z,98.70
2019-05-02T06:42:56.705Z,98.00
2019-05-02T06:45:32.282Z,98.10
2019-05-02T06:48:05.986Z,98.20
2019-05-02T06:50:40.522Z,97.20
2019-05-02T06:53:13.952Z,96.30
2019-05-02T06:55:49.618Z,96.00
2019-05-02T06:58:24.352Z,95.90
2019-05-02T07:01:00.205Z,95.80
2019-05-02T07:03:33.304Z,95.70
2019-05-02T07:06:10.120Z,95.20
2019-05-02T07:08:46.750Z,94.60
2019-05-02T07:11:22.431Z,94.40
2019-05-02T07:13:56.129Z,93.90
2019-05-02T07:16:54.600Z,93.20
2019-05-02T07:19:35.786Z,93.40
2019-05-02T07:22:09.990Z,93.40
2019-05-02T07:24:45.402Z,93.00
2019-05-02T07:27:21.394Z,93.00
2019-05-02T07:30:03.079Z,92.40
2019-05-02T07:32:36.215Z,92.40
2019-05-02T07:35:10.744Z,92.40
2019-05-02T07:37:48.838Z,92.20
2019-05-02T07:40:26.406Z,91.70
2019-05-02T07:43:01.988Z,91.10
2019-05-02T07:45:40.257Z,91.20
2019-05-02T07:48:17.717Z,91.40
2019-05-02T07:50:50.477Z,91.00
2019-05-02T07:53:29.228Z,91.00
2019-05-02T07:56:06.329Z,91.00
2019-05-02T07:58:46.954Z,90.90
2019-05-02T08:01:16.828Z,90.20
2019-05-02T08:03:50.506Z,89.90
2019-05-02T08:06:34.961Z,89.70
2019-05-02T08:09:01.699Z,89.80
2019-05-02T08:11:37.129Z,89.40
2019-05-02T08:14:13.829Z,89.30
2019-05-02T08:16:47.939Z,88.90
2019-05-02T08:19:23.626Z,88.40
2019-05-02T08:22:04.165Z,88.80
2019-05-02T08:24:37.880Z,88.50
2019-05-02T08:27:34.667Z,88.70
2019-05-02T08:30:06.397Z,87.60
2019-05-02T08:32:44.842Z,86.80
2019-05-02T08:35:21.201Z,87.30
2019-05-02T08:37:56.008Z,87.20
2019-05-02T08:40:28.289Z,87.50
2019-05-02T08:43:03.523Z,87.10
2019-05-02T08:45:38.231Z,87.40
2019-05-02T08:48:09.651Z,87.20
2019-05-02T08:50:44.822Z,87.80
2019-05-02T08:53:19.673Z,88.60
2019-05-02T08:55:51.315Z,88.50
2019-05-02T08:58:23.945Z,88.20
2019-05-02T09:00:56.250Z,87.60
2019-05-02T09:03:29.133Z,87.60
2019-05-02T09:06:05.856Z,87.60
2019-05-02T09:08:36.524Z,87.40
2019-05-02T09:11:14.180Z,87.30
2019-05-02T09:13:46.035Z,86.10
2019-05-02T09:16:23.618Z,85.90
2019-05-02T09:18:54.166Z,84.50
2019-05-02T09:21:31.155Z,84.50
2019-05-02T09:24:02.501Z,84.60
2019-05-02T09:26:38.795Z,84.60
2019-05-02T09:29:12.608Z,84.20
2019-05-02T09:31:46.151Z,84.00
2019-05-02T09:34:25.004Z,83.00
2019-05-02T09:36:53.883Z,82.10
2019-05-02T09:39:27.254Z,81.80
2019-05-02T09:42:02.199Z,81.70
2019-05-02T09:44:34.889Z,81.70
2019-05-02T09:47:09.349Z,82.20
2019-05-02T09:49:48.862Z,82.10
2019-05-02T09:52:17.415Z,80.10
2019-05-02T09:54:52.518Z,80.40
2019-05-02T09:57:27.292Z,80.10
2019-05-02T10:00:02.092Z,79.70
2019-05-02T10:02:34.331Z,79.60
2019-05-02T10:05:06.668Z,80.60
2019-05-02T10:07:41.904Z,78.80
2019-05-02T10:10:15.088Z,77.70
2019-05-02T10:12:47.386Z,76.70
2019-05-02T10:15:22.112Z,76.70
2019-05-02T10:18:07.809Z,77.70
2019-05-02T10:20:34.743Z,77.20
2019-05-02T10:23:04.441Z,77.00
2019-05-02T10:25:39.020Z,76.50
2019-05-02T10:28:12.807Z,75.30
2019-05-02T10:30:47.419Z,74.40
2019-05-02T10:33:19.894Z,73.10
2019-05-02T10:35:53.218Z,72.70
2019-05-02T10:38:25.012Z,71.90
2019-05-02T10:41:01.757Z,72.40
2019-05-02T10:43:32.942Z,73.30
2019-05-02T10:46:27.733Z,74.40
2019-05-02T10:49:08.063Z,73.30
2019-05-02T10:51:41.765Z,73.50
2019-05-02T10:54:13.707Z,73.00
2019-05-02T10:56:45.356Z,71.70
2019-05-02T10:59:17.045Z,71.00
2019-05-02T11:02:06.308Z,70.10
2019-05-02T11:04:42.125Z,70.80
2019-05-02T11:07:17.224Z,71.20
2019-05-02T11:09:49.870Z,71.30
2019-05-02T11:12:46.859Z,70.40
2019-05-02T11:15:49.356Z,70.50
2019-05-02T11:18:39.395Z,71.20
2019-05-02T11:21:04.441Z,69.50
2019-05-02T11:23:33.524Z,68.90
2019-05-02T11:26:07.762Z,68.30
2019-05-02T11:28:39.341Z,67.80
2019-05-02T11:31:12.465Z,68.10
2019-05-02T11:33:44.131Z,67.50
2019-05-02T11:36:16.114Z,67.00
2019-05-02T11:38:56.164Z,66.80
2019-05-02T11:41:22.531Z,68.20
2019-05-02T11:43:55.869Z,68.80
2019-05-02T11:46:28.362Z,68.10
2019-05-02T11:49:02.226Z,68.60
2019-05-02T11:51:34.111Z,67.60
2019-05-02T11:54:09.246Z,67.60
2019-05-02T11:56:41.100Z,67.20
2019-05-02T11:59:14.978Z,67.30
2019-05-02T12:01:59.701Z,66.60
2019-05-02T12:04:28.588Z,66.70
2019-05-02T12:07:04.600Z,66.10
2019-05-02T12:09:34.733Z,66.40
2019-05-02T12:12:06.929Z,66.70
2019-05-02T12:14:39.333Z,66.10
2019-05-02T12:17:12.128Z,65.40
2019-05-02T12:19:44.067Z,65.40
2019-05-02T12:22:17.011Z,64.80
2019-05-02T12:24:51.927Z,65.10
2019-05-02T12:27:24.533Z,62.80
2019-05-02T12:29:59.304Z,62.90
2019-05-02T12:32:33.139Z,64.00
2019-05-02T12:35:04.822Z,63.80
2019-05-02T12:37:37.896Z,64.10
2019-05-02T12:40:12.180Z,65.00
2019-05-02T12:42:44.607Z,66.10
2019-05-02T12:45:16.540Z,67.40
2019-05-02T12:47:50.012Z,68.20
2019-05-02T12:50:23.227Z,68.70
2019-05-02T12:52:57.012Z,66.30
2019-05-02T12:55:32.582Z,65.20
2019-05-02T12:58:06.738Z,64.40
2019-05-02T13:00:43.284Z,63.50
2019-05-02T13:03:56.140Z,63.40
2019-05-02T13:06:29.087Z,63.20
2019-05-02T13:09:06.533Z,63.90
2019-05-02T13:12:09.848Z,64.10
2019-05-02T13:14:49.739Z,64.80
2019-05-02T13:17:22.737Z,66.60
2019-05-02T13:20:01.500Z,67.10
2019-05-02T13:23:12.709Z,67.90
2019-05-02T13:25:51.805Z,69.00
2019-05-02T13:28:25.712Z,69.60
2019-05-02T13:31:06.537Z,69.90
2019-05-02T13:33:45.224Z,70.70
2019-05-02T13:36:42.710Z,71.80
2019-05-02T13:39:42.454Z,72.10
2019-05-02T13:42:17.217Z,72.90
2019-05-02T13:44:58.980Z,73.10
2019-05-02T13:47:32.526Z,74.00
2019-05-02T13:50:05.481Z,73.80
2019-05-02T13:52:38.969Z,74.50
2019-05-02T13:55:13.147Z,75.60
2019-05-02T13:57:47.083Z,78.70
2019-05-02T14:00:27.990Z,82.60
2019-05-02T14:03:02.724Z,83.80
2019-05-02T14:05:36.610Z,86.10
2019-05-02T14:08:27.349Z,89.60
2019-05-02T14:10:58.407Z,92.30
2019-05-02T14:13:31.595Z,94.10
2019-05-02T14:16:05.210Z,95.70
2019-05-02T14:18:42.558Z,96.00
2019-05-02T14:21:19.537Z,96.30
2019-05-02T14:23:52.175Z,96.70
2019-05-02T14:26:30.740Z,96.70
2019-05-02T14:29:11.513Z,97.10
2019-05-02T14:31:42.226Z,97.50
2019-05-02T14:34:34.971Z,97.90
2019-05-02T14:37:08.406Z,97.30
2019-05-02T14:39:41.653Z,96.40
2019-05-02T14:42:22.170Z,96.90
2019-05-02T14:45:07.256Z,96.70
2019-05-02T14:47:27.417Z,95.90
2019-05-02T14:50:02.020Z,95.80
2019-05-02T14:52:37.213Z,95.20
2019-05-02T14:55:09.086Z,94.90
2019-05-02T14:57:42.792Z,93.80
2019-05-02T15:00:17.016Z,93.50
2019-05-02T15:02:49.511Z,93.60
2019-05-02T15:05:28.370Z,93.30
2019-05-02T15:08:02.545Z,91.40
2019-05-02T15:10:36.398Z,91.40
2019-05-02T15:13:07.082Z,91.10
2019-05-02T15:15:42.942Z,90.80
2019-05-02T15:18:17.718Z,89.90
2019-05-02T15:20:52.038Z,90.50
2019-05-02T15:23:25.003Z,89.50
2019-05-02T15:25:59.362Z,90.60
2019-05-02T15:28:37.568Z,88.60
2019-05-02T15:31:11.839Z,88.90
2019-05-02T15:34:04.943Z,88.80
2019-05-02T15:36:37.238Z,88.40
2019-05-02T15:41:48.609Z,88.70
2019-05-02T15:44:23.388Z,88.90
2019-05-02T15:47:06.790Z,89.60
2019-05-02T15:49:50.243Z,91.40
2019-05-02T15:52:32.629Z,90.70
2019-05-02T15:55:06.290Z,94.90
2019-05-02T15:57:45.903Z,97.30
2019-05-02T16:00:23.186Z,99.40
2019-05-02T16:02:56.401Z,99.90
2019-05-02T16:05:32.003Z,99.90
2019-05-02T16:08:12.653Z,99.90
2019-05-02T16:10:45.831Z,99.90
2019-05-02T16:13:22.470Z,99.90
2019-05-02T16:15:57.178Z,99.90
2019-05-02T16:18:36.104Z,99.90
2019-05-02T16:21:11.920Z,99.90
2019-05-02T16:24:11.073Z,99.90
2019-05-02T16:26:46.773Z,99.90
2019-05-02T16:29:26.840Z,99.90
2019-05-02T16:32:22.152Z,99.90
2019-05-02T16:35:02.785Z,99.90
2019-05-02T16:37:37.380Z,99.90
2019-05-02T16:40:13.179Z,99.90
2019-05-02T16:42:46.648Z,99.90
2019-05-02T16:45:23.106Z,99.90
2019-05-02T16:48:00.500Z,99.90
2019-05-02T16:50:35.219Z,99.90
2019-05-02T16:53:05.918Z,99.90
2019-05-02T16:55:38.552Z,99.90
2019-05-02T16:58:14.188Z,99.90
2019-05-02T17:00:52.813Z,99.90
2019-05-02T17:03:31.505Z,99.90
2019-05-02T17:06:07.920Z,99.90
2019-05-02T17:08:58.486Z,99.90
2019-05-02T17:11:35.992Z,99.90
2019-05-02T17:14:11.944Z,99.90
2019-05-02T17:16:47.116Z,99.90
2019-05-02T17:19:31.379Z,99.90
2019-05-02T17:22:04.820Z,99.90
2019-05-02T17:24:41.905Z,99.90
2019-05-02T17:27:20.610Z,99.90
2019-05-02T17:29:59.238Z,99.90
2019-05-02T17:32:38.602Z,99.90
2019-05-02T17:35:18.586Z,99.90
2019-05-02T17:38:05.098Z,99.90
2019-05-02T17:40:38.362Z,99.90
2019-05-02T17:43:11.888Z,99.90
2019-05-02T17:45:47.913Z,99.90
2019-05-02T17:48:34.233Z,99.90
2019-05-02T17:51:37.830Z,99.90
2019-05-02T17:54:32.958Z,99.90
2019-05-02T17:57:16.936Z,99.90
2019-05-02T17:59:55.809Z,99.90
2019-05-02T18:02:31.931Z,99.90
2019-05-02T18:05:21.722Z,99.90
2019-05-02T18:07:58.778Z,99.90
2019-05-02T18:10:38.440Z,99.90
2019-05-02T18:13:16.494Z,99.90
2019-05-02T18:15:56.214Z,99.90
2019-05-02T18:18:31.945Z,99.90
2019-05-02T18:21:04.517Z,99.90
2019-05-02T18:23:36.850Z,99.90
2019-05-02T18:26:11.487Z,99.90
2019-05-02T18:28:49.343Z,99.90
2019-05-02T18:31:23.898Z,99.90
2019-05-02T18:33:58.400Z,99.90
2019-05-02T18:36:33.218Z,99.90
2019-05-02T18:39:13.045Z,99.90
2019-05-02T18:41:46.442Z,99.90
2019-05-02T18:44:21.774Z,99.90
2019-05-02T18:46:57.683Z,99.90
2019-05-02T18:49:29.537Z,99.90
2019-05-02T18:52:04.169Z,99.90
2019-05-02T18:54:38.688Z,99.90
2019-05-02T18:57:17.119Z,99.90
2019-05-02T18:59:52.056Z,99.90
2019-05-02T19:02:32.694Z,99.90
2019-05-02T19:05:06.108Z,99.90
2019-05-02T19:07:42.728Z,99.90
2019-05-02T19:10:18.844Z,99.90
2019-05-02T19:12:56.103Z,99.90
2019-05-02T19:15:34.636Z,99.90
2019-05-02T19:18:17.705Z,99.90
2019-05-02T19:21:12.574Z,99.90
2019-05-02T19:23:48.841Z,99.90
2019-05-02T19:26:25.962Z,99.90
2019-05-02T19:29:22.166Z,99.90
2019-05-02T19:31:58.026Z,99.90
2019-05-02T19:34:32.468Z,99.90
2019-05-02T19:37:06.815Z,99.90
2019-05-02T19:39:44.779Z,99.90
2019-05-02T19:42:22.546Z,99.90
2019-05-02T19:44:55.054Z,99.90
2019-05-02T19:47:28.861Z,99.90
2019-05-02T19:50:04.026Z,99.90
2019-05-02T19:52:41.015Z,99.90
2019-05-02T19:55:19.940Z,99.90
2019-05-02T19:57:56.723Z,99.90
2019-05-02T20:00:29.378Z,99.90
2019-05-02T20:03:03.679Z,99.90
2019-05-02T20:05:37.371Z,99.90
2019-05-02T20:08:14.821Z,99.90
2019-05-02T20:10:56.727Z,99.90
2019-05-02T20:13:28.059Z,99.90
2019-05-02T20:16:11.693Z,99.90
2019-05-02T20:18:47.335Z,99.90
2019-05-02T20:21:32.534Z,99.90
2019-05-02T20:24:14.620Z,99.90
2019-05-02T20:26:51.499Z,99.90
2019-05-02T20:29:22.832Z,99.90
2019-05-02T20:31:57.548Z,99.90
2019-05-02T20:34:32.946Z,99.90
2019-05-02T20:37:08.019Z,99.90
2019-05-02T20:39:42.433Z,99.90
2019-05-02T20:42:17.172Z,99.90
2019-05-02T20:44:55.301Z,99.90
2019-05-02T20:47:32.759Z,99.90
2019-05-02T20:50:06.572Z,99.90
2019-05-02T20:52:48.257Z,99.90
2019-05-02T20:55:26.109Z,99.90
2019-05-02T20:58:06.421Z,99.90
2019-05-02T21:00:42.725Z,99.90
2019-05-02T21:03:23.587Z,99.90
2019-05-02T21:06:09.677Z,99.90
2019-05-02T21:09:21.744Z,99.90
2019-05-02T21:12:05.008Z,99.90
2019-05-02T21:14:41.597Z,99.90
2019-05-02T21:17:19.016Z,99.90
2019-05-02T21:19:55.610Z,99.90
2019-05-02T21:22:33.224Z,99.90
2019-05-02T21:25:09.275Z,99.90
2019-05-02T21:27:45.142Z,99.90
2019-05-02T21:30:26.370Z,99.90
2019-05-02T21:33:04.447Z,99.90
2019-05-02T21:35:44.372Z,99.90
2019-05-02T21:38:24.906Z,99.90
2019-05-02T21:41:00.764Z,99.90
2019-05-02T21:43:38.811Z,99.90
2019-05-02T21:46:13.638Z,99.90
2019-05-02T21:48:49.450Z,99.90
2019-05-02T21:51:35.102Z,99.90
2019-05-02T21:54:18.005Z,99.90
2019-05-02T21:56:57.788Z,99.90
2019-05-02T21:59:32.465Z,99.90
2019-05-02T22:02:12.823Z,99.90
2019-05-02T22:04:52.767Z,99.90
2019-05-02T22:07:27.618Z,99.90
2019-05-02T22:10:09.467Z,99.90
2019-05-02T22:12:44.313Z,99.90
2019-05-02T22:15:21.848Z,99.90
2019-05-02T22:18:02.270Z,99.90
2019-05-02T22:20:37.873Z,99.90
2019-05-02T22:23:12.279Z,99.90
2019-05-02T22:25:47.106Z,99.90
2019-05-02T22:28:22.276Z,99.90
2019-05-02T22:30:56.814Z,99.90
2019-05-02T22:33:32.835Z,99.90
2019-05-02T22:36:08.434Z,99.90
2019-05-02T22:38:52.834Z,99.90
2019-05-02T22:41:27.722Z,99.90
2019-05-02T22:44:02.124Z,99.90
2019-05-02T22:46:43.823Z,99.90
2019-05-02T22:49:18.356Z,99.90
2019-05-02T22:51:52.600Z,99.90
2019-05-02T22:54:30.677Z,99.90
2019-05-02T22:57:03.724Z,99.90
2019-05-02T22:59:38.195Z,99.90
2019-05-02T23:02:12.892Z,99.90
2019-05-02T23:04:49.074Z,99.90
2019-05-02T23:07:23.561Z,99.90
2019-05-02T23:09:57.675Z,99.90
2019-05-02T23:12:32.296Z,99.90
2019-05-02T23:15:05.921Z,99.90
2019-05-02T23:17:42.756Z,99.90
2019-05-02T23:20:17.245Z,99.90
2019-05-02T23:22:52.407Z,99.90
2019-05-02T23:25:45.033Z,99.90
2019-05-02T23:28:24.329Z,99.90
2019-05-02T23:30:58.097Z,99.90
2019-05-02T23:33:52.645Z,99.90
2019-05-02T23:36:29.670Z,99.90
2019-05-02T23:39:04.789Z,99.90
2019-05-02T23:41:38.663Z,99.90
2019-05-02T23:44:12.813Z,99.90
2019-05-02T23:46:46.438Z,99.90
2019-05-02T23:49:22.021Z,99.90
2019-05-02T23:51:56.908Z,99.90
2019-05-02T23:54:34.830Z,99.90
2019-05-02T23:57:15.124Z,99.90
2019-05-02T23:59:51.781Z,99.90
